الصفحة الرئيسية
METAR-TAF:

METAR-TAF

مطار :

فلوريانوبوليس, سانتا كاتارينا, البرازيل

دائرة عرض: 27-40S, خط طول: 048-33W, ارتفاع: 5 متر

مراقبة الطقس الحالي

تاريخ ووقت الإصدار 54 دقيقة قبل الساعة 22:00UTC
ريح 5 عقدة من الشمال
درجة الحرارة 21°درجة مئوية
الرطوبة 88%
ضغط 1012 hPa
الرؤية 10 كم أو أكثر
الغيوم لا تقل 1500 م ولا وجود لمزنة ركامية السحاب الأسود

METAR: SBFL 222200Z 36005KT CAVOK 21/19 Q1012

زمن: 19:54 (22:54 UTC)

توقعات

تاريخ ووقت الإصدار 7ساعات و 54 دقيقة قبل الساعة 15:00UTC
التوقعات صالحة من22 الساعة 18 UTC إلى 23 الساعة 18 UTC
ريح 10 عقدة من الشمال
الرؤية 10 كم أو أكثر
الغيوم لا تقل 1500 م ولا وجود لمزنة ركامية السحاب الأسود

TAF: SBFL 221500Z 2218/2318 36010KT CAVOK TX29/2218Z TN20/2308Z RMK PD J

أرصاد الطقس والتوقعات من أكثر من 4000 مطار (تقارير الطقس للمطار METAR والتنبؤ بالطقس بالمطارTAF).

المحطات المتاحة هي النقط الصفراء والحمراء على الخريطة.

حرك المؤشر فوق النقطة لمعرفة اسم المحطة.

ثم انقر لمعرفة أرصاد وتوقعات الطقس.

لتغيير الخارطة: اضغط على الأزرار الخضراء مع رمز الصليب الأسود للتكبير. على الزر الأخضر مع شرطة للتصغير، أو على الأسهم الخضراء للخرائط المجاورة.


METAR-TAF: